createdAt,value
2022-11-18T00:01:22.729Z,10.48
2022-11-18T00:03:50.295Z,9.70
2022-11-18T00:06:21.917Z,8.75
2022-11-18T00:08:48.593Z,8.63
2022-11-18T00:11:36.500Z,10.02
2022-11-18T00:14:18.842Z,9.55
2022-11-18T00:16:52.033Z,12.40
2022-11-18T00:19:20.566Z,16.65
2022-11-18T00:21:47.214Z,14.43
2022-11-18T00:24:13.639Z,16.08
2022-11-18T00:26:40.079Z,14.65
2022-11-18T00:29:06.591Z,13.25
2022-11-18T00:31:32.994Z,12.30
2022-11-18T00:33:59.343Z,11.55
2022-11-18T00:36:25.715Z,19.02
2022-11-18T00:38:52.076Z,19.65
2022-11-18T00:41:21.258Z,12.48
2022-11-18T00:43:47.615Z,11.82
2022-11-18T00:46:14.227Z,13.05
2022-11-18T00:48:40.924Z,13.48
2022-11-18T00:51:11.042Z,12.73
2022-11-18T00:53:37.463Z,13.73
2022-11-18T00:56:03.956Z,15.68
2022-11-18T00:58:30.334Z,12.20
2022-11-18T01:00:56.846Z,22.00
2022-11-18T01:03:24.418Z,17.95
2022-11-18T01:05:50.974Z,21.52
2022-11-18T01:08:18.430Z,18.55
2022-11-18T01:10:44.848Z,21.40
2022-11-18T01:13:20.188Z,20.05
2022-11-18T01:15:54.841Z,21.77
2022-11-18T01:18:26.911Z,21.27
2022-11-18T01:20:53.535Z,22.10
2022-11-18T01:23:20.556Z,21.33
2022-11-18T01:25:48.577Z,24.17
2022-11-18T01:28:22.979Z,25.63
2022-11-18T01:30:50.321Z,25.83
2022-11-18T01:33:16.740Z,29.48
2022-11-18T01:35:43.886Z,31.92
2022-11-18T01:38:14.305Z,27.60
2022-11-18T01:40:41.579Z,27.20
2022-11-18T01:43:15.892Z,28.70
2022-11-18T01:45:43.772Z,25.40
2022-11-18T01:48:17.058Z,27.30
2022-11-18T01:50:52.722Z,23.97
2022-11-18T01:53:23.082Z,24.27
2022-11-18T01:55:51.177Z,24.67
2022-11-18T01:58:23.750Z,25.05
2022-11-18T02:00:50.206Z,30.83
2022-11-18T02:03:17.786Z,30.33
2022-11-18T02:05:46.551Z,28.83
2022-11-18T02:08:13.337Z,25.13
2022-11-18T02:10:39.736Z,25.80
2022-11-18T02:13:07.611Z,29.02
2022-11-18T02:15:58.846Z,41.90
2022-11-18T02:18:32.287Z,30.95
2022-11-18T02:21:49.331Z,35.42
2022-11-18T02:24:27.838Z,31.75
2022-11-18T02:27:06.080Z,27.52
2022-11-18T02:29:56.219Z,25.60
2022-11-18T02:32:26.424Z,42.28
2022-11-18T02:34:58.102Z,40.05
2022-11-18T02:37:33.182Z,51.15
2022-11-18T02:40:10.444Z,63.15
2022-11-18T02:42:38.095Z,49.85
2022-11-18T02:45:08.957Z,54.92
2022-11-18T02:47:36.428Z,64.80
2022-11-18T02:50:09.135Z,61.65
2022-11-18T02:52:37.584Z,46.15
2022-11-18T02:55:07.452Z,58.95
2022-11-18T02:57:34.256Z,66.10
2022-11-18T03:00:00.661Z,66.25
2022-11-18T03:02:27.099Z,61.30
2022-11-18T03:04:56.090Z,62.38
2022-11-18T03:07:27.186Z,55.53
2022-11-18T03:09:54.380Z,61.53
2022-11-18T03:12:35.690Z,54.80
2022-11-18T03:15:12.144Z,59.15
2022-11-18T03:17:45.702Z,61.22
2022-11-18T03:20:26.103Z,58.30
2022-11-18T03:23:02.956Z,65.35
2022-11-18T03:25:38.362Z,56.95
2022-11-18T03:28:15.178Z,53.25
2022-11-18T03:31:10.467Z,61.35
2022-11-18T03:33:42.276Z,66.25
2022-11-18T03:36:10.211Z,64.88
2022-11-18T03:38:40.076Z,67.00
2022-11-18T03:41:10.050Z,57.70
2022-11-18T03:43:43.762Z,51.85
2022-11-18T03:47:11.869Z,44.88
2022-11-18T03:49:44.872Z,67.63
2022-11-18T03:52:15.737Z,47.72
2022-11-18T03:54:45.046Z,40.47
2022-11-18T03:57:18.321Z,57.05
2022-11-18T04:00:06.805Z,52.53
2022-11-18T04:02:33.501Z,40.33
2022-11-18T04:05:01.191Z,48.80
2022-11-18T04:07:41.722Z,52.72
2022-11-18T04:10:15.596Z,46.08
2022-11-18T04:13:01.803Z,48.40
2022-11-18T04:15:31.862Z,38.60
2022-11-18T04:17:59.178Z,36.85
2022-11-18T04:20:25.941Z,40.85
2022-11-18T04:22:52.320Z,34.60
2022-11-18T04:25:18.708Z,34.75
2022-11-18T04:27:45.148Z,41.75
2022-11-18T04:30:12.140Z,36.00
2022-11-18T04:32:38.554Z,31.63
2022-11-18T04:35:05.142Z,30.95
2022-11-18T04:37:31.509Z,30.65
2022-11-18T04:39:57.910Z,24.65
2022-11-18T04:42:24.252Z,24.00
2022-11-18T04:44:50.636Z,25.85
2022-11-18T04:47:17.072Z,28.30
2022-11-18T04:49:45.787Z,19.45
2022-11-18T04:52:15.690Z,23.67
2022-11-18T04:54:42.190Z,26.20
2022-11-18T04:57:08.758Z,25.60
2022-11-18T04:59:35.865Z,36.03
2022-11-18T05:02:02.610Z,29.83
2022-11-18T05:04:31.668Z,29.40
2022-11-18T05:06:59.110Z,30.30
2022-11-18T05:09:31.325Z,28.52
2022-11-18T05:12:16.843Z,23.10
2022-11-18T05:14:49.305Z,23.55
2022-11-18T05:17:16.700Z,24.58
2022-11-18T05:19:43.112Z,20.85
2022-11-18T05:22:09.503Z,27.25
2022-11-18T05:24:35.938Z,27.65
2022-11-18T05:27:02.329Z,26.17
2022-11-18T05:29:28.667Z,28.27
2022-11-18T05:31:55.099Z,32.20
2022-11-18T05:34:21.529Z,25.02
2022-11-18T05:36:48.000Z,28.75
2022-11-18T05:39:14.455Z,25.00
2022-11-18T05:41:59.130Z,24.48
2022-11-18T05:44:25.521Z,20.58
2022-11-18T05:46:51.891Z,23.15
2022-11-18T05:49:18.420Z,28.58
2022-11-18T05:51:45.013Z,22.70
2022-11-18T05:54:12.820Z,19.33
2022-11-18T05:56:41.155Z,20.52
2022-11-18T05:59:07.955Z,20.95
2022-11-18T06:01:48.252Z,21.33
2022-11-18T06:04:20.116Z,23.35
2022-11-18T06:06:47.257Z,22.35
2022-11-18T06:09:16.347Z,20.95
2022-11-18T06:11:57.069Z,21.45
2022-11-18T06:14:37.672Z,26.42
2022-11-18T06:17:10.170Z,22.02
2022-11-18T06:19:36.629Z,18.92
2022-11-18T06:22:03.887Z,18.88
2022-11-18T06:24:30.376Z,24.60
2022-11-18T06:26:57.919Z,18.17
2022-11-18T06:29:27.902Z,18.08
2022-11-18T06:31:54.662Z,17.85
2022-11-18T06:34:21.004Z,15.32
2022-11-18T06:36:47.380Z,22.10
2022-11-18T06:39:13.828Z,18.90
2022-11-18T06:41:40.247Z,25.00
2022-11-18T06:44:06.715Z,21.05
2022-11-18T06:46:52.115Z,20.15
2022-11-18T06:49:18.843Z,25.02
2022-11-18T06:51:45.383Z,19.10
2022-11-18T06:54:12.240Z,19.63
2022-11-18T06:56:38.837Z,20.00
2022-11-18T06:59:05.256Z,14.18
2022-11-18T07:01:34.619Z,16.77
2022-11-18T07:04:01.592Z,17.30
2022-11-18T07:06:29.993Z,16.45
2022-11-18T07:08:56.834Z,14.10
2022-11-18T07:11:25.411Z,13.73
2022-11-18T07:13:52.400Z,16.15
2022-11-18T07:16:21.181Z,14.80
2022-11-18T07:18:48.779Z,13.95
2022-11-18T07:21:20.428Z,14.80
2022-11-18T07:23:47.528Z,15.90
2022-11-18T07:26:16.330Z,16.92
2022-11-18T07:28:42.968Z,15.48
2022-11-18T07:31:10.279Z,16.15
2022-11-18T07:33:37.097Z,16.15
2022-11-18T07:36:05.541Z,18.15
2022-11-18T07:38:32.300Z,16.30
2022-11-18T07:41:09.033Z,14.38
2022-11-18T07:43:35.978Z,16.48
2022-11-18T07:46:15.298Z,16.67
2022-11-18T07:48:42.495Z,15.75
2022-11-18T07:51:09.261Z,15.93
2022-11-18T07:53:36.142Z,19.35
2022-11-18T07:56:02.998Z,16.92
2022-11-18T07:58:29.371Z,16.10
2022-11-18T08:00:55.741Z,17.15
2022-11-18T08:03:26.762Z,15.85
2022-11-18T08:05:59.967Z,15.48
2022-11-18T08:08:26.609Z,15.18
2022-11-18T08:10:57.067Z,17.98
2022-11-18T08:13:24.011Z,17.65
2022-11-18T08:15:50.427Z,19.48
2022-11-18T08:18:16.934Z,17.48
2022-11-18T08:20:44.847Z,15.55
2022-11-18T08:23:12.199Z,14.90
2022-11-18T08:25:40.078Z,17.48
2022-11-18T08:28:06.999Z,15.75
2022-11-18T08:30:34.361Z,14.57
2022-11-18T08:33:00.711Z,17.70
2022-11-18T08:35:28.091Z,18.67
2022-11-18T08:37:54.531Z,23.10
2022-11-18T08:40:21.391Z,16.65
2022-11-18T08:42:47.963Z,18.80
2022-11-18T08:45:14.341Z,19.05
2022-11-18T08:47:40.700Z,16.25
2022-11-18T08:50:09.255Z,19.05
2022-11-18T08:52:35.863Z,21.33
2022-11-18T08:55:02.627Z,17.48
2022-11-18T08:57:29.344Z,14.40
2022-11-18T08:59:55.700Z,12.95
2022-11-18T09:02:23.685Z,15.82
2022-11-18T09:04:53.516Z,13.13
2022-11-18T09:07:21.391Z,14.27
2022-11-18T09:09:47.950Z,12.73
2022-11-18T09:12:15.043Z,10.50
2022-11-18T09:17:29.442Z,9.32
2022-11-18T09:19:55.783Z,12.68
2022-11-18T09:22:22.118Z,12.20
2022-11-18T09:24:48.524Z,12.55
2022-11-18T09:27:17.317Z,8.60
2022-11-18T09:29:44.210Z,8.60
2022-11-18T09:32:13.347Z,8.20
2022-11-18T09:34:39.732Z,11.27
2022-11-18T09:37:06.791Z,8.63
2022-11-18T09:39:39.023Z,8.20
2022-11-18T09:42:39.439Z,7.47
2022-11-18T09:45:23.674Z,7.88
2022-11-18T09:47:51.098Z,7.47
2022-11-18T09:50:48.476Z,7.57
2022-11-18T09:53:19.248Z,8.18
2022-11-18T09:55:46.075Z,7.53
2022-11-18T09:58:18.596Z,6.82
2022-11-18T10:00:46.126Z,7.30
2022-11-18T10:03:18.657Z,7.97
2022-11-18T10:05:47.820Z,6.82
2022-11-18T10:08:35.343Z,6.65
2022-11-18T10:11:14.528Z,9.00
2022-11-18T10:13:46.742Z,9.40
2022-11-18T10:16:45.638Z,8.30
2022-11-18T10:19:33.530Z,12.23
2022-11-18T10:22:24.551Z,7.82
2022-11-18T10:24:53.813Z,8.85
2022-11-18T10:27:20.807Z,8.45
2022-11-18T10:29:53.220Z,9.15
2022-11-18T10:32:20.218Z,7.32
2022-11-18T10:34:58.009Z,7.22
2022-11-18T10:40:27.929Z,5.20
2022-11-18T10:42:54.707Z,8.25
2022-11-18T10:45:21.067Z,6.90
2022-11-18T10:48:02.740Z,7.90
2022-11-18T10:50:34.723Z,5.72
2022-11-18T10:53:01.359Z,8.05
2022-11-18T10:55:29.294Z,11.10
2022-11-18T10:57:58.560Z,8.48
2022-11-18T11:00:36.722Z,7.30
2022-11-18T11:03:23.320Z,6.57
2022-11-18T11:06:16.654Z,8.23
2022-11-18T11:08:53.885Z,7.50
2022-11-18T11:11:43.473Z,6.18
2022-11-18T11:14:31.274Z,8.18
2022-11-18T11:16:59.278Z,6.72
2022-11-18T11:19:31.720Z,6.10
2022-11-18T11:21:58.212Z,5.15
2022-11-18T11:24:26.783Z,5.25
2022-11-18T11:30:07.997Z,6.80
2022-11-18T11:32:58.401Z,8.70
2022-11-18T11:35:38.072Z,5.97
2022-11-18T11:38:18.555Z,6.95
2022-11-18T11:41:09.108Z,4.22
2022-11-18T11:43:54.891Z,6.47
2022-11-18T11:46:38.022Z,5.93
2022-11-18T11:49:27.849Z,6.82
2022-11-18T11:51:57.485Z,8.13
2022-11-18T11:55:20.614Z,4.50
2022-11-18T11:58:08.587Z,5.50
2022-11-18T12:00:40.450Z,2.60
2022-11-18T12:03:34.016Z,5.38
2022-11-18T12:06:00.579Z,5.22
2022-11-18T12:08:31.139Z,2.90
2022-11-18T12:11:07.786Z,3.25
2022-11-18T12:14:05.924Z,3.17
2022-11-18T12:16:47.201Z,3.97
2022-11-18T12:19:19.577Z,3.80
2022-11-18T12:21:46.067Z,4.13
2022-11-18T12:24:18.135Z,4.85
2022-11-18T12:26:45.942Z,4.53
2022-11-18T12:29:18.511Z,3.85
2022-11-18T12:31:46.985Z,2.83
2022-11-18T12:34:33.535Z,4.20
2022-11-18T12:37:26.045Z,5.22
2022-11-18T12:39:55.136Z,4.70
2022-11-18T12:43:03.818Z,2.67
2022-11-18T12:45:42.366Z,3.22
2022-11-18T12:48:27.827Z,5.82
2022-11-18T12:50:56.506Z,6.13
2022-11-18T12:53:53.688Z,3.25
2022-11-18T12:56:23.041Z,4.45
2022-11-18T12:58:57.302Z,3.92
2022-11-18T13:01:27.119Z,5.40
2022-11-18T13:04:25.576Z,13.82
2022-11-18T13:06:54.315Z,7.50
2022-11-18T13:09:24.017Z,5.80
2022-11-18T13:11:55.988Z,5.30
2022-11-18T13:14:46.801Z,4.05
2022-11-18T13:17:45.559Z,8.55
2022-11-18T13:20:27.132Z,5.32
2022-11-18T13:23:17.586Z,5.03
2022-11-18T13:25:47.778Z,3.70
2022-11-18T13:28:32.030Z,30.73
2022-11-18T13:31:05.730Z,4.18
2022-11-18T13:33:36.524Z,12.80
2022-11-18T13:36:02.904Z,9.30
2022-11-18T13:38:29.259Z,18.80
2022-11-18T13:41:04.538Z,20.75
2022-11-18T13:43:32.286Z,3.85
2022-11-18T13:46:05.173Z,4.13
2022-11-18T13:48:33.328Z,5.00
2022-11-18T13:51:00.421Z,18.23
2022-11-18T13:53:37.114Z,8.82
2022-11-18T13:56:31.781Z,10.63
2022-11-18T13:59:18.027Z,3.42
2022-11-18T14:01:45.599Z,5.50
2022-11-18T14:04:20.961Z,11.40
2022-11-18T14:06:47.453Z,6.40
2022-11-18T14:09:32.422Z,6.57
2022-11-18T14:12:18.615Z,9.27
2022-11-18T14:14:46.434Z,4.70
2022-11-18T14:17:17.245Z,4.78
2022-11-18T14:19:43.926Z,3.40
2022-11-18T14:22:24.197Z,3.38
2022-11-18T14:25:06.488Z,6.95
2022-11-18T14:27:36.443Z,3.53
2022-11-18T14:30:27.052Z,3.67
2022-11-18T14:33:15.052Z,2.75
2022-11-18T14:36:05.523Z,2.85
2022-11-18T14:38:51.921Z,2.05
2022-11-18T14:41:45.025Z,1.85
2022-11-18T14:44:13.182Z,2.97
2022-11-18T14:46:40.772Z,4.53
2022-11-18T14:49:18.703Z,3.50
2022-11-18T14:51:45.962Z,3.30
2022-11-18T14:54:20.845Z,2.80
2022-11-18T14:56:53.932Z,1.33
2022-11-18T14:59:20.999Z,5.82
2022-11-18T15:01:48.061Z,3.33
2022-11-18T15:04:15.624Z,2.33
2022-11-18T15:06:42.084Z,4.10
2022-11-18T15:09:08.830Z,5.03
2022-11-18T15:11:35.632Z,5.03
2022-11-18T15:14:02.511Z,4.80
2022-11-18T15:16:30.497Z,4.20
2022-11-18T15:19:00.593Z,5.10
2022-11-18T15:21:27.529Z,4.22
2022-11-18T15:23:53.897Z,1.90
2022-11-18T15:26:24.100Z,3.10
2022-11-18T15:28:52.015Z,1.77
2022-11-18T15:31:18.420Z,2.70
2022-11-18T15:33:45.792Z,2.25
2022-11-18T15:36:14.261Z,3.25
2022-11-18T15:38:41.069Z,3.38
2022-11-18T15:41:10.633Z,4.10
2022-11-18T15:43:36.956Z,4.57
2022-11-18T15:46:03.677Z,7.03
2022-11-18T15:48:30.016Z,4.15
2022-11-18T15:50:56.355Z,3.40
2022-11-18T15:53:22.719Z,1.55
2022-11-18T15:55:49.266Z,3.65
2022-11-18T15:58:17.240Z,2.38
2022-11-18T16:00:45.090Z,2.80
2022-11-18T16:03:11.750Z,5.43
2022-11-18T16:05:38.296Z,3.45
2022-11-18T16:08:04.751Z,3.13
2022-11-18T16:10:49.708Z,3.60
2022-11-18T16:13:20.757Z,6.38
2022-11-18T16:15:48.126Z,4.72
2022-11-18T16:18:16.369Z,3.90
2022-11-18T16:20:42.870Z,3.38
2022-11-18T16:23:09.205Z,3.75
2022-11-18T16:25:35.797Z,3.22
2022-11-18T16:28:07.248Z,8.45
2022-11-18T16:30:52.414Z,4.35
2022-11-18T16:33:18.796Z,3.47
2022-11-18T16:35:48.379Z,5.97
2022-11-18T16:38:16.445Z,2.45
2022-11-18T16:40:42.765Z,2.65
2022-11-18T16:43:09.132Z,3.28
2022-11-18T16:45:35.456Z,2.47
2022-11-18T16:48:02.080Z,2.42
2022-11-18T16:50:28.438Z,3.45
2022-11-18T16:52:55.053Z,5.75
2022-11-18T16:55:21.369Z,4.05
2022-11-18T16:57:47.992Z,4.63
2022-11-18T17:00:14.587Z,3.05
2022-11-18T17:02:41.547Z,3.25
2022-11-18T17:05:08.234Z,5.68
2022-11-18T17:07:38.637Z,4.03
2022-11-18T17:10:05.807Z,5.70
2022-11-18T17:12:32.136Z,18.98
2022-11-18T17:14:58.567Z,17.67
2022-11-18T17:17:24.918Z,15.77
2022-11-18T17:19:51.346Z,24.73
2022-11-18T17:22:17.726Z,20.90
2022-11-18T17:24:44.086Z,6.93
2022-11-18T17:27:10.415Z,5.50
2022-11-18T17:29:36.793Z,3.72
2022-11-18T17:32:03.262Z,4.32
2022-11-18T17:34:29.692Z,4.22
2022-11-18T17:36:58.265Z,5.40
2022-11-18T17:39:28.138Z,2.45
2022-11-18T17:42:12.904Z,3.88
2022-11-18T17:44:39.270Z,4.25
2022-11-18T17:47:05.764Z,3.53
2022-11-18T17:49:32.210Z,4.25
2022-11-18T17:51:58.710Z,13.82
2022-11-18T17:54:25.091Z,5.38
2022-11-18T17:56:52.213Z,5.60
2022-11-18T17:59:18.948Z,5.55
2022-11-18T18:01:45.999Z,8.25
2022-11-18T18:04:20.273Z,5.07
2022-11-18T18:06:48.920Z,6.38
2022-11-18T18:09:15.404Z,8.40
2022-11-18T18:11:41.817Z,7.15
2022-11-18T18:14:12.332Z,3.85
2022-11-18T18:16:41.063Z,4.90
2022-11-18T18:19:08.503Z,5.65
2022-11-18T18:21:35.684Z,6.45
2022-11-18T18:24:02.680Z,6.22
2022-11-18T18:26:31.908Z,8.10
2022-11-18T18:29:01.421Z,7.00
2022-11-18T18:31:28.390Z,7.68
2022-11-18T18:33:54.918Z,6.03
2022-11-18T18:36:21.523Z,6.68
2022-11-18T18:38:49.470Z,4.20
2022-11-18T18:41:17.911Z,5.70
2022-11-18T18:43:45.736Z,6.05
2022-11-18T18:46:31.336Z,7.65
2022-11-18T18:49:11.976Z,7.68
2022-11-18T18:51:39.986Z,4.22
2022-11-18T18:54:07.512Z,7.30
2022-11-18T18:56:34.287Z,5.97
2022-11-18T18:59:01.089Z,10.20
2022-11-18T19:01:28.373Z,5.78
2022-11-18T19:03:57.483Z,6.90
2022-11-18T19:09:17.441Z,6.97
2022-11-18T19:12:02.936Z,6.53
2022-11-18T19:14:29.680Z,6.30
2022-11-18T19:16:56.742Z,8.25
2022-11-18T19:19:43.679Z,10.13
2022-11-18T19:22:12.301Z,6.53
2022-11-18T19:24:54.888Z,7.45
2022-11-18T19:27:22.012Z,10.45
2022-11-18T19:29:48.581Z,7.93
2022-11-18T19:32:15.435Z,6.10
2022-11-18T19:34:41.898Z,5.60
2022-11-18T19:37:08.504Z,8.52
2022-11-18T19:39:35.295Z,7.78
2022-11-18T19:42:01.664Z,5.57
2022-11-18T19:44:28.053Z,7.05
2022-11-18T19:46:54.400Z,7.18
2022-11-18T19:49:22.142Z,5.15
2022-11-18T19:51:48.805Z,6.15
2022-11-18T19:54:15.156Z,10.30
2022-11-18T19:56:41.659Z,9.95
2022-11-18T19:59:07.999Z,8.23
2022-11-18T20:01:34.620Z,10.98
2022-11-18T20:04:02.853Z,8.27
2022-11-18T20:06:29.243Z,11.27
2022-11-18T20:08:56.808Z,8.23
2022-11-18T20:11:23.711Z,6.35
2022-11-18T20:13:50.672Z,7.35
2022-11-18T20:16:22.584Z,8.15
2022-11-18T20:18:54.085Z,7.78
2022-11-18T20:21:21.629Z,11.35
2022-11-18T20:23:54.444Z,7.03
2022-11-18T20:26:22.449Z,8.48
2022-11-18T20:28:54.321Z,6.93
2022-11-18T20:31:23.509Z,16.23
2022-11-18T20:33:51.333Z,26.65
2022-11-18T20:36:18.993Z,21.48
2022-11-18T20:38:49.872Z,14.65
2022-11-18T20:41:16.435Z,13.68
2022-11-18T20:43:44.093Z,15.07
2022-11-18T20:46:14.594Z,22.30
2022-11-18T20:48:44.021Z,18.90
2022-11-18T20:51:12.817Z,19.27
2022-11-18T20:53:41.935Z,16.73
2022-11-18T20:56:12.884Z,15.10
2022-11-18T20:58:39.661Z,18.23
2022-11-18T21:01:29.399Z,12.55
2022-11-18T21:03:57.805Z,17.60
2022-11-18T21:06:26.420Z,12.45
2022-11-18T21:08:57.918Z,11.32
2022-11-18T21:11:24.876Z,10.60
2022-11-18T21:14:09.550Z,11.23
2022-11-18T21:16:35.982Z,10.82
2022-11-18T21:19:02.774Z,8.75
2022-11-18T21:21:44.305Z,9.93
2022-11-18T21:24:12.570Z,10.20
2022-11-18T21:26:39.678Z,10.60
2022-11-18T21:29:08.085Z,8.25
2022-11-18T21:31:34.595Z,8.60
2022-11-18T21:34:01.221Z,9.93
2022-11-18T21:36:28.369Z,6.93
2022-11-18T21:38:56.866Z,9.07
2022-11-18T21:41:23.246Z,7.93
2022-11-18T21:44:04.930Z,11.48
2022-11-18T21:46:33.825Z,9.52
2022-11-18T21:49:00.682Z,7.65
2022-11-18T21:51:27.367Z,7.25
2022-11-18T21:53:53.873Z,7.40
2022-11-18T21:56:22.781Z,6.15
2022-11-18T21:58:49.875Z,6.18
2022-11-18T22:01:19.174Z,6.10
2022-11-18T22:03:52.281Z,5.35
2022-11-18T22:06:22.284Z,8.88
2022-11-18T22:08:48.727Z,7.28
2022-11-18T22:11:17.541Z,5.50
2022-11-18T22:13:43.860Z,6.68
2022-11-18T22:16:12.921Z,6.22
2022-11-18T22:18:41.517Z,6.65
2022-11-18T22:21:17.628Z,6.05
2022-11-18T22:23:44.076Z,6.53
2022-11-18T22:26:18.366Z,5.88
2022-11-18T22:28:45.850Z,7.93
2022-11-18T22:31:17.060Z,7.78
2022-11-18T22:33:43.459Z,6.47
2022-11-18T22:36:13.321Z,5.45
2022-11-18T22:38:41.373Z,4.45
2022-11-18T22:41:30.212Z,6.15
2022-11-18T22:43:56.894Z,8.52
2022-11-18T22:46:23.937Z,7.97
2022-11-18T22:48:50.576Z,14.85
2022-11-18T22:51:17.180Z,14.48
2022-11-18T22:53:43.758Z,9.23
2022-11-18T22:56:12.205Z,15.27
2022-11-18T22:58:39.835Z,10.80
2022-11-18T23:01:09.305Z,11.77
2022-11-18T23:03:36.655Z,13.38
2022-11-18T23:06:03.928Z,11.48
2022-11-18T23:08:39.638Z,10.52
2022-11-18T23:11:11.557Z,6.95
2022-11-18T23:13:57.169Z,6.45
2022-11-18T23:16:23.581Z,6.35
2022-11-18T23:18:50.148Z,3.67
2022-11-18T23:21:16.619Z,3.92
2022-11-18T23:23:44.245Z,4.22
2022-11-18T23:26:12.431Z,2.85
2022-11-18T23:28:39.361Z,2.90
2022-11-18T23:31:07.601Z,6.40
2022-11-18T23:33:34.421Z,3.45
2022-11-18T23:36:00.965Z,3.72
2022-11-18T23:38:28.442Z,3.25
2022-11-18T23:40:59.235Z,3.67
2022-11-18T23:43:25.957Z,4.50
2022-11-18T23:45:52.955Z,3.72
2022-11-18T23:48:20.881Z,4.50
2022-11-18T23:50:58.645Z,5.30
2022-11-18T23:53:25.876Z,5.15
2022-11-18T23:55:52.650Z,4.78
2022-11-18T23:58:19.139Z,5.82
